Wheelock, Texas
Current Conditions -  °F | °C
As of 10:55 PM on Friday 19 Dec 2014 (Local Time) from KCFD Reporting Station
Haze Haze  
Wind Chill: 45°   Ceiling: 600
Heat Index: 48°   Visibility: 5mi
Dew Point: 47°   Wind: 7mph
Humidity: 97%   Direction: 340°NNW
Pressure: 30.2"   Gusts: NA
Location:  30.9°N, 96.39°W
Report Text: KCFD 200455Z AUTO 34006KT 5SM BR OVC006 09/09 A3020 RMK AO2 T00900085
Loading
Personal Weather Stations






























Interactive Weather Map New forecast layout! Learn more

10-Day Weather Forecast

Advertisements
Track Severe Weather on mobile